If you wish to contribute or participate in the discussions about articles you are invited to join SKYbrary as a registered user

 Actions

Recife/Guararapes–Gilberto Freyre International Airport

From SKYbrary Wiki

SBRF
Airport
ICAO: SBRF – IATA: REC
Summary
Name Recife/Guararapes–Gilberto Freyre International Airport
Region South America and Caribbean
Territory Brazil BR.gif
Location Recife, Pernambuco
Serving Recife
Elevation 10.058 m
33 ft10.058 m
Coordinates 8° 7' 35.00" S, 34° 55' 22.01" W
Runways
Designator Length Width Surface ROPS
18/36 3007 m9,865.486 ft
45 m147.638 ft
ASP yes/yes


METAR
Observation SBRF 171900Z 16005KT 9999 -DZ SCT009 BKN013 BKN040 24/22 Q1013
Station Recife Aeroporto
Date/Time 17 September 2019 19:00:00
Wind direction 160°
Wind speed 05 kts
Lowest cloud amount scattered clouds
Temperature 24°C
Dew point 22°C
Humidity 88%
QNH 1013 hPa
Weather condition light drizzle

Recife International Airport (IATA: REC, ICAO: SBRF) is the airport of Recife, Pernambuco.

Climatology

Tropical monsoon climate (Köppen climate classification Cfc)

Maps

Terrain

Loading map...

Airport Layout

Loading map...


Accidents & Serious Incidents at or in vicinity of SBRF

None on SKYbrary